Time;durP1;ratioP1;P1;durP2;ratioP2;P2;SDS_P1;SDS_P2;PMS_P1;PMS_P2;Temp;Humidity;BMP_temperature;BMP_pressure;BME280_temperature;BME280_humidity;BME280_pressure;Samples;Min_cycle;Max_cycle;Signal;HPM_P1;HPM_P2
2022/06/26 00:01:20;;;;;;;11.05;10.00;;;20.00;99.90;;;;;;5047106;28;20029;-54
2022/06/26 00:03:45;;;;;;;10.40;9.50;;;20.00;99.90;;;;;;5047195;28;20606;-50
2022/06/26 00:06:11;;;;;;;9.48;8.50;;;20.00;99.90;;;;;;5048712;28;20021;-53
2022/06/26 00:08:36;;;;;;;11.85;9.43;;;19.90;99.90;;;;;;5047238;28;20041;-50
2022/06/26 00:11:02;;;;;;;9.00;8.23;;;20.00;99.90;;;;;;5051439;28;20037;-56
2022/06/26 00:13:28;;;;;;;10.18;9.18;;;19.90;99.90;;;;;;5047848;28;20391;-51
2022/06/26 00:15:53;;;;;;;11.10;10.15;;;19.90;99.90;;;;;;5050540;28;20021;-54
2022/06/26 00:18:19;;;;;;;10.70;9.80;;;19.90;99.90;;;;;;5046158;28;20112;-50
2022/06/26 00:20:45;;;;;;;11.82;10.70;;;19.80;99.90;;;;;;5049522;28;20685;-51
2022/06/26 00:23:10;;;;;;;10.68;9.32;;;19.80;99.90;;;;;;5048552;28;20044;-54
2022/06/26 00:25:36;;;;;;;11.13;10.20;;;19.70;99.90;;;;;;5046726;28;20525;-54
2022/06/26 00:28:02;;;;;;;11.85;10.80;;;19.70;99.90;;;;;;5048666;28;20496;-51
2022/06/26 00:30:27;;;;;;;9.50;8.73;;;19.70;99.90;;;;;;5048259;28;20036;-50
2022/06/26 00:32:53;;;;;;;10.93;9.85;;;19.70;99.90;;;;;;5046847;28;20396;-52
2022/06/26 00:35:18;;;;;;;10.25;9.25;;;19.70;99.90;;;;;;5049702;28;20095;-54
2022/06/26 00:37:44;;;;;;;12.63;11.35;;;19.70;99.90;;;;;;5051151;28;20039;-55
2022/06/26 00:40:10;;;;;;;9.75;8.95;;;19.70;99.90;;;;;;5044848;28;20032;-52
2022/06/26 00:42:36;;;;;;;10.15;9.35;;;19.60;99.90;;;;;;5049525;28;20033;-53
2022/06/26 00:45:03;;;;;;;10.45;9.40;;;19.60;99.90;;;;;;5045948;28;20037;-53
2022/06/26 00:47:30;;;;;;;9.52;8.68;;;19.60;99.90;;;;;;5046352;28;20515;-53
2022/06/26 00:49:56;;;;;;;11.02;9.93;;;19.60;99.90;;;;;;5049507;28;20060;-52
2022/06/26 00:52:22;;;;;;;10.13;9.20;;;19.50;99.90;;;;;;5046843;28;20048;-51
2022/06/26 00:54:52;;;;;;;9.98;9.07;;;19.50;99.90;;;;;;5049462;28;20533;-53
2022/06/26 00:57:19;;;;;;;10.40;9.20;;;19.50;99.90;;;;;;5046552;28;20028;-51
2022/06/26 00:59:45;;;;;;;10.00;8.85;;;19.50;99.90;;;;;;5046373;28;20060;-49
2022/06/26 01:02:10;;;;;;;8.48;7.72;;;19.50;99.90;;;;;;5042486;28;20056;-55
2022/06/26 01:04:36;;;;;;;9.32;8.43;;;19.50;99.90;;;;;;5038338;28;20570;-52
2022/06/26 01:07:02;;;;;;;10.50;9.50;;;19.50;99.90;;;;;;5048940;28;20021;-51
2022/06/26 01:09:27;;;;;;;9.52;8.73;;;19.50;99.90;;;;;;5046736;28;20031;-48
2022/06/26 01:11:53;;;;;;;9.13;8.32;;;19.50;99.90;;;;;;5048302;28;20056;-51
2022/06/26 01:14:20;;;;;;;9.98;9.20;;;19.50;99.90;;;;;;5045256;28;20391;-51
2022/06/26 01:16:46;;;;;;;9.23;8.32;;;19.50;99.90;;;;;;5047675;28;20111;-50
2022/06/26 01:19:16;;;;;;;9.75;8.85;;;19.50;99.90;;;;;;5049943;28;20025;-50
2022/06/26 01:21:42;;;;;;;10.00;9.05;;;19.50;99.90;;;;;;5045573;28;20021;-51
2022/06/26 01:24:07;;;;;;;9.82;8.98;;;19.40;99.90;;;;;;5048958;28;20029;-50
2022/06/26 01:26:34;;;;;;;8.93;8.13;;;19.40;99.90;;;;;;5045800;28;20558;-51
2022/06/26 01:29:01;;;;;;;8.68;7.97;;;19.40;99.90;;;;;;5047005;28;20025;-54
2022/06/26 01:31:27;;;;;;;9.82;8.93;;;19.30;99.90;;;;;;5044866;28;20036;-49
2022/06/26 01:33:52;;;;;;;9.18;8.30;;;19.40;99.90;;;;;;5046943;28;20491;-51
2022/06/26 01:36:18;;;;;;;9.30;8.50;;;19.30;99.90;;;;;;5050263;28;20073;-51
2022/06/26 01:38:44;;;;;;;8.82;7.95;;;19.30;99.90;;;;;;5046366;28;20078;-51
2022/06/26 01:41:09;;;;;;;9.50;8.60;;;19.30;99.90;;;;;;5048233;28;20021;-52
2022/06/26 01:43:37;;;;;;;9.70;8.80;;;19.30;99.90;;;;;;5037464;28;20107;-52
2022/06/26 01:46:05;;;;;;;8.82;8.07;;;19.30;99.90;;;;;;5047955;28;20016;-50
2022/06/26 01:48:34;;;;;;;9.02;8.23;;;19.20;99.90;;;;;;5044087;28;20222;-50
2022/06/26 01:51:02;;;;;;;8.88;8.13;;;19.20;99.90;;;;;;5036243;28;20025;-49
2022/06/26 01:53:28;;;;;;;9.20;8.40;;;19.20;99.90;;;;;;5043116;28;20103;-51
2022/06/26 01:55:54;;;;;;;8.68;7.88;;;19.20;99.90;;;;;;5044115;28;20079;-50
2022/06/26 01:58:20;;;;;;;9.18;8.25;;;19.10;99.90;;;;;;5048176;28;20029;-51
2022/06/26 02:00:47;;;;;;;8.98;8.27;;;19.10;99.90;;;;;;5044265;28;20711;-50
2022/06/26 02:03:14;;;;;;;8.98;8.27;;;19.00;99.90;;;;;;5045310;28;20359;-51
2022/06/26 02:05:39;;;;;;;9.50;8.55;;;19.00;99.90;;;;;;5049809;28;20032;-49
2022/06/26 02:08:05;;;;;;;8.45;7.75;;;19.00;99.90;;;;;;5044224;28;20039;-55
2022/06/26 02:13:36;;;;;;;9.75;8.85;;;19.00;99.90;;;;;;5014435;28;20083;-51
2022/06/26 02:16:06;;;;;;;9.10;8.30;;;19.00;99.90;;;;;;5046370;28;20414;-54
2022/06/26 02:18:32;;;;;;;8.68;7.93;;;18.90;99.90;;;;;;5033443;28;20080;-54
2022/06/26 02:20:58;;;;;;;7.85;7.25;;;18.90;99.90;;;;;;5048229;28;20120;-53
2022/06/26 02:23:24;;;;;;;8.30;7.65;;;18.90;99.90;;;;;;5043758;28;20538;-50
2022/06/26 02:25:50;;;;;;;8.15;7.35;;;18.90;99.90;;;;;;5047842;28;20479;-54
2022/06/26 02:28:16;;;;;;;8.73;7.93;;;18.90;99.90;;;;;;5039811;28;20510;-54
2022/06/26 02:30:42;;;;;;;10.70;9.75;;;18.90;99.90;;;;;;5046760;28;20021;-50
2022/06/26 02:33:08;;;;;;;10.25;9.25;;;18.90;99.90;;;;;;5044962;28;20032;-50
2022/06/26 02:35:34;;;;;;;10.00;9.10;;;18.90;99.90;;;;;;5042915;28;20081;-48
2022/06/26 02:38:00;;;;;;;10.35;9.05;;;18.90;99.90;;;;;;5048561;28;20033;-49
2022/06/26 02:40:28;;;;;;;9.23;8.43;;;18.90;99.90;;;;;;5045127;28;20025;-48
2022/06/26 02:42:54;;;;;;;10.52;8.90;;;18.90;99.90;;;;;;5047387;28;20033;-47
2022/06/26 02:45:20;;;;;;;10.38;9.48;;;19.00;99.90;;;;;;5040215;28;20535;-51
2022/06/26 02:47:46;;;;;;;9.38;8.45;;;19.00;99.90;;;;;;5039585;28;20108;-50
2022/06/26 02:50:12;;;;;;;9.77;8.98;;;18.90;99.90;;;;;;5045012;28;20021;-52
2022/06/26 02:52:38;;;;;;;9.88;9.05;;;19.00;99.90;;;;;;5047613;28;20398;-49
2022/06/26 02:55:04;;;;;;;12.57;10.05;;;18.90;99.90;;;;;;5044209;28;20026;-49
2022/06/26 02:57:30;;;;;;;11.10;10.00;;;19.00;99.90;;;;;;5046844;28;20488;-52
2022/06/26 02:59:56;;;;;;;10.52;9.55;;;18.90;99.90;;;;;;5042427;28;20056;-50
2022/06/26 03:02:24;;;;;;;10.13;9.13;;;18.90;99.90;;;;;;5039797;28;20021;-52
2022/06/26 03:04:51;;;;;;;10.30;9.40;;;18.90;99.90;;;;;;5060974;28;20049;-48
2022/06/26 03:07:17;;;;;;;10.27;9.32;;;18.80;99.90;;;;;;5045259;28;20483;-50
2022/06/26 03:09:42;;;;;;;9.75;8.85;;;18.80;99.90;;;;;;5048576;28;20024;-51
2022/06/26 03:12:08;;;;;;;11.38;10.32;;;18.80;99.90;;;;;;5047500;28;20032;-49
2022/06/26 03:14:34;;;;;;;10.75;9.85;;;18.80;99.90;;;;;;5050853;28;20026;-48
2022/06/26 03:17:00;;;;;;;9.63;8.82;;;18.80;99.90;;;;;;5046679;28;20104;-49
2022/06/26 03:19:25;;;;;;;10.40;9.38;;;18.80;99.90;;;;;;5049719;28;20447;-48
2022/06/26 03:21:51;;;;;;;10.52;9.57;;;18.80;99.90;;;;;;5051867;28;20062;-50
2022/06/26 03:24:16;;;;;;;10.35;9.38;;;18.80;99.90;;;;;;5048628;28;20086;-49
2022/06/26 03:26:42;;;;;;;10.45;9.45;;;18.80;99.90;;;;;;5051217;28;20056;-48
2022/06/26 03:29:10;;;;;;;10.30;9.40;;;18.80;99.90;;;;;;5045929;28;20487;-49
2022/06/26 03:31:36;;;;;;;11.43;10.38;;;18.80;99.90;;;;;;5049836;28;20226;-48
2022/06/26 03:34:03;;;;;;;10.60;9.60;;;18.80;99.90;;;;;;5046553;28;20017;-49
2022/06/26 03:36:28;;;;;;;9.52;8.68;;;18.80;99.90;;;;;;5049237;28;20051;-49
2022/06/26 03:38:54;;;;;;;11.52;10.52;;;18.80;99.90;;;;;;5043691;28;20116;-50
2022/06/26 03:41:21;;;;;;;11.15;10.13;;;18.80;99.90;;;;;;5048052;28;20025;-49
2022/06/26 03:43:47;;;;;;;10.90;9.90;;;18.70;99.90;;;;;;5050412;28;20118;-49
2022/06/26 03:46:13;;;;;;;11.68;10.63;;;18.80;99.90;;;;;;5047242;28;20091;-49
2022/06/26 03:48:38;;;;;;;10.55;9.55;;;18.70;99.90;;;;;;5049694;28;20383;-49
2022/06/26 03:51:04;;;;;;;11.85;10.50;;;18.80;99.90;;;;;;5046393;28;20024;-49
2022/06/26 03:53:31;;;;;;;9.95;9.02;;;18.80;99.90;;;;;;5051907;28;20017;-50
2022/06/26 03:55:57;;;;;;;12.38;11.27;;;18.70;99.90;;;;;;5046310;28;20017;-50
2022/06/26 03:58:23;;;;;;;11.32;10.32;;;18.80;99.90;;;;;;5051036;28;20032;-49
2022/06/26 04:00:49;;;;;;;11.07;10.07;;;18.70;99.90;;;;;;5045118;28;20495;-50
2022/06/26 04:03:15;;;;;;;12.57;11.38;;;18.70;99.90;;;;;;5048022;28;20037;-49
2022/06/26 04:05:41;;;;;;;11.73;10.73;;;18.70;99.90;;;;;;5050575;28;20056;-49
2022/06/26 04:08:07;;;;;;;12.68;11.48;;;18.70;99.90;;;;;;5046119;28;20052;-53
2022/06/26 04:10:33;;;;;;;11.35;10.45;;;18.70;99.90;;;;;;5051660;28;20029;-51
2022/06/26 04:13:02;;;;;;;12.57;11.50;;;18.70;99.90;;;;;;5045258;28;20021;-51
2022/06/26 04:15:28;;;;;;;12.05;11.00;;;18.80;99.90;;;;;;5050873;28;20028;-50
2022/06/26 04:17:54;;;;;;;12.00;10.82;;;18.80;99.90;;;;;;5045105;28;20036;-49
2022/06/26 04:20:21;;;;;;;11.07;9.93;;;18.80;99.90;;;;;;5048335;28;20013;-50
2022/06/26 04:23:04;;;;;;;12.15;10.43;;;18.80;99.90;;;;;;5050877;28;20033;-52
2022/06/26 04:25:31;;;;;;;12.57;11.48;;;18.90;99.90;;;;;;5047890;28;20036;-50
2022/06/26 04:27:57;;;;;;;11.07;10.18;;;18.90;99.90;;;;;;5050175;28;20036;-49
2022/06/26 04:30:23;;;;;;;11.50;10.50;;;19.00;99.90;;;;;;5044508;28;20422;-52
2022/06/26 04:32:49;;;;;;;11.48;10.48;;;19.00;99.90;;;;;;5050049;28;20028;-50
2022/06/26 04:35:15;;;;;;;12.15;11.00;;;19.00;99.90;;;;;;5042625;28;20605;-48
2022/06/26 04:37:41;;;;;;;12.05;11.05;;;19.10;99.90;;;;;;5050708;28;20021;-50
2022/06/26 04:40:10;;;;;;;11.98;10.77;;;19.10;99.90;;;;;;5048440;28;20067;-52
2022/06/26 04:42:36;;;;;;;11.35;10.35;;;19.20;99.90;;;;;;5039947;28;20641;-54
2022/06/26 04:45:02;;;;;;;12.88;11.77;;;19.20;99.90;;;;;;5049069;28;20037;-52
2022/06/26 04:47:27;;;;;;;11.90;11.00;;;19.30;99.90;;;;;;5043928;28;20029;-48
2022/06/26 04:49:53;;;;;;;12.63;11.48;;;19.30;99.90;;;;;;5046869;28;20028;-51
2022/06/26 04:52:19;;;;;;;12.77;11.18;;;19.30;99.90;;;;;;5049077;28;20079;-49
2022/06/26 04:54:44;;;;;;;11.27;10.25;;;19.40;99.90;;;;;;5045844;28;20081;-49
2022/06/26 04:57:11;;;;;;;11.88;10.68;;;19.40;99.90;;;;;;5048487;28;20021;-50
2022/06/26 04:59:37;;;;;;;11.25;10.15;;;19.50;99.90;;;;;;5045140;28;20060;-50
2022/06/26 05:02:04;;;;;;;11.80;10.60;;;19.50;99.90;;;;;;5047177;28;20032;-53
2022/06/26 05:04:30;;;;;;;11.98;10.98;;;19.60;99.90;;;;;;5050106;28;20102;-48
2022/06/26 05:06:55;;;;;;;11.02;10.13;;;19.60;99.90;;;;;;5046594;28;20531;-49
2022/06/26 05:09:22;;;;;;;11.20;10.20;;;19.70;99.90;;;;;;5049471;28;20017;-50
2022/06/26 05:11:48;;;;;;;10.90;9.93;;;19.80;99.90;;;;;;5045484;28;20032;-53
2022/06/26 05:14:14;;;;;;;10.13;9.30;;;19.80;99.90;;;;;;5042277;28;20014;-51
2022/06/26 05:16:39;;;;;;;10.60;9.70;;;19.90;99.90;;;;;;5044673;28;20535;-49
2022/06/26 05:19:05;;;;;;;11.00;10.00;;;19.90;99.90;;;;;;5047245;28;20019;-49
2022/06/26 05:21:30;;;;;;;11.00;10.02;;;20.00;99.90;;;;;;5048994;28;20068;-51
2022/06/26 05:23:56;;;;;;;11.55;9.80;;;20.00;99.90;;;;;;5046159;28;20021;-48
2022/06/26 05:26:23;;;;;;;10.48;9.43;;;20.10;99.90;;;;;;5048675;28;20365;-50
2022/06/26 05:28:49;;;;;;;9.98;9.13;;;20.20;99.90;;;;;;5045098;28;20021;-49
2022/06/26 05:31:15;;;;;;;9.90;9.15;;;20.30;99.90;;;;;;5047380;28;20468;-50
2022/06/26 05:33:41;;;;;;;9.07;8.27;;;20.40;99.90;;;;;;5043852;28;20024;-48
2022/06/26 05:36:07;;;;;;;10.45;9.63;;;20.50;99.90;;;;;;5046969;28;20049;-51
2022/06/26 05:38:37;;;;;;;12.20;8.60;;;20.60;99.90;;;;;;5049394;28;20100;-52
2022/06/26 05:41:03;;;;;;;9.68;8.55;;;20.80;99.90;;;;;;5044370;28;20025;-49
2022/06/26 05:43:29;;;;;;;8.65;7.95;;;20.90;99.90;;;;;;5048030;28;20035;-49
2022/06/26 05:45:55;;;;;;;8.65;7.95;;;21.00;99.90;;;;;;5040429;28;20458;-48
2022/06/26 05:48:21;;;;;;;9.18;8.43;;;21.10;99.90;;;;;;5047437;28;20021;-51
2022/06/26 05:50:47;;;;;;;8.02;7.43;;;21.30;99.90;;;;;;5045995;28;20027;-49
2022/06/26 05:53:12;;;;;;;9.60;8.65;;;21.50;99.90;;;;;;5047652;28;20087;-49
2022/06/26 05:55:38;;;;;;;7.93;7.15;;;21.70;99.90;;;;;;5044646;28;20479;-49
2022/06/26 05:58:05;;;;;;;7.70;6.95;;;21.90;99.90;;;;;;5047119;28;20040;-50
2022/06/26 06:00:31;;;;;;;7.80;7.13;;;22.00;99.90;;;;;;5044134;28;20033;-49
2022/06/26 06:02:57;;;;;;;7.07;6.50;;;22.30;99.90;;;;;;5045166;28;20036;-52
2022/06/26 06:05:23;;;;;;;7.25;6.65;;;22.50;99.90;;;;;;5049565;28;20021;-50
2022/06/26 06:07:49;;;;;;;7.28;6.68;;;22.70;99.90;;;;;;5045468;28;20044;-52
2022/06/26 06:10:14;;;;;;;7.43;6.75;;;23.00;99.90;;;;;;5047683;28;20013;-54
2022/06/26 06:12:40;;;;;;;6.88;6.22;;;23.10;99.90;;;;;;5044441;28;20020;-53
2022/06/26 06:15:06;;;;;;;7.05;6.43;;;23.20;99.90;;;;;;5046807;28;20033;-52
2022/06/26 06:17:40;;;;;;;6.15;5.55;;;23.30;99.90;;;;;;5036617;28;20040;-55
2022/06/26 06:20:12;;;;;;;6.47;5.88;;;23.30;99.90;;;;;;5047499;28;20032;-50
2022/06/26 06:22:44;;;;;;;5.43;5.03;;;23.30;99.90;;;;;;5048865;28;20033;-50
2022/06/26 06:25:10;;;;;;;6.25;5.78;;;23.30;99.90;;;;;;5035659;28;20029;-52
2022/06/26 06:27:37;;;;;;;6.35;5.85;;;23.30;99.90;;;;;;5049611;28;20067;-52
2022/06/26 06:30:05;;;;;;;6.03;5.53;;;23.30;99.90;;;;;;5042445;28;20024;-51
2022/06/26 06:32:31;;;;;;;6.32;5.78;;;23.30;99.90;;;;;;5048867;28;20419;-51
2022/06/26 06:34:56;;;;;;;5.90;5.45;;;23.30;99.90;;;;;;5042309;28;20020;-51
2022/06/26 06:37:22;;;;;;;7.13;5.93;;;23.40;99.90;;;;;;5045924;28;20028;-50
2022/06/26 06:39:47;;;;;;;6.13;5.63;;;23.40;99.90;;;;;;5046246;28;20036;-51
2022/06/26 06:42:13;;;;;;;5.82;5.38;;;23.50;99.90;;;;;;5047379;28;20079;-52
2022/06/26 06:44:39;;;;;;;6.05;5.55;;;23.60;99.90;;;;;;5050096;28;20475;-51
2022/06/26 06:47:05;;;;;;;5.35;5.05;;;23.70;99.90;;;;;;5051711;28;20427;-51
2022/06/26 06:49:31;;;;;;;6.15;5.68;;;23.80;99.90;;;;;;5053154;28;20021;-53
2022/06/26 06:51:57;;;;;;;5.35;4.95;;;23.80;99.90;;;;;;5049334;28;20017;-50
2022/06/26 06:54:23;;;;;;;5.60;5.10;;;23.90;99.90;;;;;;5052437;28;20017;-52
2022/06/26 06:56:48;;;;;;;5.57;5.07;;;24.10;99.90;;;;;;5049214;28;20033;-51
2022/06/26 06:59:14;;;;;;;5.40;4.90;;;24.20;99.90;;;;;;5051585;28;20483;-49
2022/06/26 07:01:40;;;;;;;6.07;5.45;;;24.40;99.90;;;;;;5047895;28;20029;-51
2022/06/26 07:04:07;;;;;;;4.95;4.63;;;24.60;99.90;;;;;;5049091;28;20025;-52
2022/06/26 07:06:32;;;;;;;5.53;5.13;;;24.80;99.90;;;;;;5053018;28;20021;-49
2022/06/26 07:08:58;;;;;;;6.18;5.68;;;25.00;99.90;;;;;;5047497;28;20024;-51
2022/06/26 07:11:24;;;;;;;5.70;5.20;;;25.10;99.90;;;;;;5047942;28;20119;-52
2022/06/26 07:13:50;;;;;;;5.00;4.50;;;25.30;99.90;;;;;;5052448;28;20061;-53
2022/06/26 07:16:15;;;;;;;4.78;4.47;;;25.50;99.90;;;;;;5050198;28;20032;-50
2022/06/26 07:18:41;;;;;;;4.60;4.20;;;25.70;99.90;;;;;;5046774;28;20179;-51
2022/06/26 07:21:07;;;;;;;5.03;4.63;;;25.90;99.90;;;;;;5047257;28;20044;-52
2022/06/26 07:23:33;;;;;;;4.72;4.35;;;26.20;99.90;;;;;;5051615;28;20104;-50
2022/06/26 07:25:59;;;;;;;4.95;4.60;;;26.40;99.90;;;;;;5048256;28;20100;-50
2022/06/26 07:28:25;;;;;;;4.50;4.10;;;26.60;99.90;;;;;;5050529;28;20029;-54
2022/06/26 07:30:51;;;;;;;4.18;3.88;;;26.80;99.90;;;;;;5047381;28;20044;-52
2022/06/26 07:36:01;;;;;;;4.63;4.05;;;27.20;99.90;;;;;;5046581;28;20066;-52
2022/06/26 07:38:27;;;;;;;4.03;3.72;;;27.50;99.90;;;;;;5049218;28;20376;-51
2022/06/26 07:40:52;;;;;;;4.03;3.63;;;27.70;99.90;;;;;;5051573;28;20048;-53
2022/06/26 07:43:18;;;;;;;3.80;3.40;;;27.90;99.90;;;;;;5048035;28;20032;-51
2022/06/26 07:45:44;;;;;;;3.72;3.42;;;28.10;99.10;;;;;;5052351;28;20025;-49
2022/06/26 07:48:09;;;;;;;3.63;3.33;;;28.30;97.50;;;;;;5046836;28;20467;-51
2022/06/26 07:50:35;;;;;;;3.67;3.38;;;28.40;98.00;;;;;;5049541;28;20079;-50
2022/06/26 07:53:01;;;;;;;3.47;3.15;;;28.60;97.20;;;;;;5050566;28;20087;-52
2022/06/26 07:55:27;;;;;;;4.38;3.58;;;28.70;98.20;;;;;;5047511;28;20025;-50
2022/06/26 07:57:52;;;;;;;3.72;3.42;;;29.00;97.90;;;;;;5050015;28;20120;-51
2022/06/26 08:00:18;;;;;;;3.33;3.13;;;29.20;96.20;;;;;;5041426;28;20026;-54
2022/06/26 08:02:43;;;;;;;3.45;3.15;;;29.30;96.30;;;;;;5047462;28;20037;-52
2022/06/26 08:05:09;;;;;;;3.25;2.88;;;29.60;95.60;;;;;;5051218;28;20375;-50
2022/06/26 08:07:35;;;;;;;3.17;2.97;;;29.80;94.50;;;;;;5048287;28;20040;-51
2022/06/26 08:10:00;;;;;;;4.30;3.38;;;29.90;93.70;;;;;;5050450;28;20035;-50
2022/06/26 08:12:26;;;;;;;3.95;3.17;;;30.00;93.00;;;;;;5046941;28;20031;-51
2022/06/26 08:14:51;;;;;;;2.95;2.75;;;30.00;92.40;;;;;;5051386;28;20052;-53
2022/06/26 08:17:17;;;;;;;3.08;2.88;;;30.00;92.90;;;;;;5045393;28;20685;-51
2022/06/26 08:19:43;;;;;;;3.60;3.10;;;30.10;92.60;;;;;;5049278;28;20021;-52
2022/06/26 08:22:08;;;;;;;3.40;3.10;;;30.20;91.80;;;;;;5050310;28;20025;-51
2022/06/26 08:24:36;;;;;;;3.80;2.75;;;30.20;92.60;;;;;;5047584;28;20051;-54
2022/06/26 08:27:01;;;;;;;4.32;3.28;;;30.40;91.70;;;;;;5049983;28;20033;-56
2022/06/26 08:29:28;;;;;;;3.08;2.88;;;30.60;91.70;;;;;;5039696;28;20030;-54
2022/06/26 08:31:54;;;;;;;3.33;3.08;;;30.70;90.60;;;;;;5048136;28;20055;-50
2022/06/26 08:34:20;;;;;;;2.90;2.70;;;30.90;90.10;;;;;;5045733;28;20044;-50
2022/06/26 08:36:46;;;;;;;3.58;2.60;;;31.10;91.10;;;;;;5048335;28;20120;-52
2022/06/26 08:39:11;;;;;;;2.40;2.20;;;31.20;86.80;;;;;;5050550;28;20363;-55
2022/06/26 08:41:44;;;;;;;2.20;2.10;;;31.00;85.90;;;;;;5047033;28;20029;-54
2022/06/26 08:44:10;;;;;;;2.55;2.35;;;30.90;86.10;;;;;;5049477;28;20025;-52
2022/06/26 08:46:39;;;;;;;4.78;3.00;;;31.00;85.00;;;;;;5046221;28;20039;-53
2022/06/26 08:49:16;;;;;;;4.13;2.50;;;31.00;86.20;;;;;;5048583;28;20028;-54
2022/06/26 08:51:45;;;;;;;3.25;2.30;;;31.00;85.50;;;;;;5045171;28;20020;-52
2022/06/26 08:54:12;;;;;;;2.80;2.60;;;31.10;85.80;;;;;;5047645;28;20045;-51
2022/06/26 08:56:41;;;;;;;2.00;1.90;;;31.10;84.40;;;;;;5048184;28;20438;-54
2022/06/26 08:59:07;;;;;;;2.22;1.88;;;31.30;85.10;;;;;;5048512;28;20527;-54
2022/06/26 09:01:34;;;;;;;2.22;2.08;;;31.30;81.10;;;;;;5044892;28;20021;-53
2022/06/26 09:04:00;;;;;;;2.10;1.92;;;31.10;82.20;;;;;;5049800;28;20484;-51
2022/06/26 09:06:26;;;;;;;2.08;1.90;;;30.90;81.80;;;;;;5048433;28;20124;-54
2022/06/26 09:08:52;;;;;;;2.30;2.10;;;30.60;83.50;;;;;;5048339;28;20028;-54
2022/06/26 09:11:18;;;;;;;2.65;2.28;;;30.30;84.10;;;;;;5044619;28;20499;-56
2022/06/26 09:13:46;;;;;;;1.90;1.80;;;30.20;83.60;;;;;;5047280;28;20028;-52
2022/06/26 09:16:13;;;;;;;3.38;2.20;;;30.10;84.30;;;;;;5049745;28;20430;-53
2022/06/26 09:18:40;;;;;;;2.47;2.28;;;30.10;84.50;;;;;;5046686;28;20033;-53
2022/06/26 09:21:07;;;;;;;3.42;2.35;;;30.10;87.60;;;;;;5048181;28;20021;-51
2022/06/26 09:23:36;;;;;;;2.53;2.25;;;30.30;86.90;;;;;;5043846;28;20083;-51
2022/06/26 09:26:02;;;;;;;2.25;2.15;;;30.40;84.30;;;;;;5047486;28;20037;-54
2022/06/26 09:28:28;;;;;;;2.58;2.13;;;30.30;84.20;;;;;;5044363;28;20082;-54
2022/06/26 09:31:02;;;;;;;4.18;2.33;;;30.30;85.80;;;;;;5046306;28;20021;-52
2022/06/26 09:33:31;;;;;;;2.75;2.00;;;30.40;85.00;;;;;;5049632;28;20021;-53
2022/06/26 09:35:58;;;;;;;2.35;2.25;;;30.40;86.00;;;;;;5045273;28;20028;-52
2022/06/26 09:38:29;;;;;;;5.45;2.08;;;30.30;86.70;;;;;;5049936;28;20029;-52
2022/06/26 09:41:00;;;;;;;4.05;2.30;;;30.40;86.30;;;;;;5044237;28;20491;-50
2022/06/26 09:43:32;;;;;;;2.97;2.03;;;30.50;87.10;;;;;;5048829;28;20075;-55
2022/06/26 09:46:00;;;;;;;2.15;1.98;;;30.40;84.10;;;;;;5042860;28;20049;-51
2022/06/26 09:48:26;;;;;;;4.03;2.65;;;30.30;84.10;;;;;;5045549;28;20044;-53
2022/06/26 09:50:53;;;;;;;1.90;1.80;;;30.40;84.00;;;;;;5049153;28;20158;-51
2022/06/26 09:53:20;;;;;;;2.42;1.90;;;30.40;85.00;;;;;;5048522;28;20025;-55
2022/06/26 09:55:50;;;;;;;3.55;2.50;;;30.40;85.00;;;;;;5045516;28;20013;-56
2022/06/26 09:58:16;;;;;;;2.50;2.30;;;30.10;83.70;;;;;;5047729;28;20028;-53
2022/06/26 10:00:42;;;;;;;2.70;2.50;;;30.00;84.60;;;;;;5044289;28;20494;-53
2022/06/26 10:08:42;;;;;;;2.97;2.17;;;30.20;85.40;;;;;;5048829;28;20125;-51
2022/06/26 10:11:08;;;;;;;2.65;2.45;;;30.40;83.20;;;;;;5046654;28;20553;-54
2022/06/26 10:13:36;;;;;;;2.45;2.25;;;30.50;85.20;;;;;;5045796;28;20041;-56
2022/06/26 10:16:19;;;;;;;4.10;2.33;;;30.40;83.40;;;;;;5047425;28;20033;-53
2022/06/26 10:19:15;;;;;;;2.67;2.47;;;30.20;83.80;;;;;;5045722;28;20013;-56
2022/06/26 10:21:42;;;;;;;2.38;2.17;;;29.90;84.00;;;;;;5044112;28;20031;-53
2022/06/26 10:24:08;;;;;;;2.42;2.22;;;29.80;86.00;;;;;;5045785;28;20025;-53
2022/06/26 10:26:35;;;;;;;2.40;2.20;;;29.90;86.50;;;;;;5047919;28;20017;-53
2022/06/26 10:29:08;;;;;;;2.42;2.22;;;30.00;84.90;;;;;;5044336;28;20028;-55
2022/06/26 10:31:50;;;;;;;3.25;2.55;;;29.90;84.00;;;;;;5047168;28;20025;-55
2022/06/26 10:34:19;;;;;;;2.70;2.58;;;29.70;85.30;;;;;;5044162;28;20495;-55
2022/06/26 10:37:06;;;;;;;2.80;2.60;;;29.60;87.30;;;;;;5046474;28;20411;-54
2022/06/26 10:39:41;;;;;;;3.35;2.50;;;29.50;87.60;;;;;;5043298;28;20083;-53
2022/06/26 10:45:12;;;;;;;2.60;2.40;;;29.70;87.90;;;;;;5048704;28;20095;-52
2022/06/26 10:47:56;;;;;;;4.22;2.58;;;29.90;86.00;;;;;;5046565;28;20036;-53
2022/06/26 10:50:31;;;;;;;3.80;3.33;;;29.90;87.50;;;;;;5049133;28;20036;-56
2022/06/26 10:53:11;;;;;;;;;;;29.70;89.70;;;;;;5048021;28;20078;-57
2022/06/26 10:55:37;;;;;;;4.60;4.10;;;29.90;90.00;;;;;;5044636;28;20418;-54
2022/06/26 10:58:03;;;;;;;4.72;4.32;;;29.80;90.00;;;;;;5047040;28;20028;-54
2022/06/26 11:00:28;;;;;;;5.45;3.80;;;29.80;89.70;;;;;;5043683;28;20085;-56
2022/06/26 11:02:54;;;;;;;5.45;3.90;;;29.80;90.40;;;;;;5045389;28;20032;-54
2022/06/26 11:05:20;;;;;;;3.80;3.40;;;29.80;90.20;;;;;;5048823;28;20458;-53
2022/06/26 11:07:53;;;;;;;4.65;4.25;;;29.70;90.50;;;;;;5045278;28;20033;-58
2022/06/26 11:10:25;;;;;;;7.55;4.15;;;29.50;89.70;;;;;;5048231;28;20025;-56
2022/06/26 11:12:52;;;;;;;5.32;3.85;;;29.20;90.00;;;;;;5043819;28;20028;-55
2022/06/26 11:15:33;;;;;;;5.47;3.65;;;29.00;90.50;;;;;;5081427;22;20047;-53
2022/06/26 11:18:04;;;;;;;4.70;4.30;;;28.90;90.80;;;;;;5062047;28;20035;-49
2022/06/26 11:20:51;;;;;;;4.80;4.32;;;28.80;90.50;;;;;;5066900;28;20029;-50
2022/06/26 11:23:28;;;;;;;4.35;3.95;;;28.60;91.50;;;;;;5053964;28;20025;-48
2022/06/26 11:26:00;;;;;;;6.05;5.55;;;28.50;91.70;;;;;;5066623;28;20029;-54
2022/06/26 11:28:41;;;;;;;5.38;4.88;;;28.50;91.50;;;;;;5062942;28;20052;-51
2022/06/26 11:31:13;;;;;;;6.30;5.80;;;28.30;92.30;;;;;;5068286;28;20028;-52
2022/06/26 11:33:40;;;;;;;8.60;4.78;;;28.10;92.20;;;;;;5066902;28;20016;-52
2022/06/26 11:36:09;;;;;;;4.78;4.28;;;28.00;92.80;;;;;;5069618;28;20016;-50
2022/06/26 11:38:35;;;;;;;5.35;4.85;;;28.10;93.00;;;;;;5071861;28;20093;-54
2022/06/26 11:41:04;;;;;;;5.72;4.53;;;28.10;92.90;;;;;;5068300;28;20107;-51
2022/06/26 11:43:30;;;;;;;4.97;4.53;;;28.10;92.80;;;;;;5070932;28;20132;-50
2022/06/26 11:45:57;;;;;;;4.82;4.32;;;28.10;93.10;;;;;;5067572;28;20410;-48
2022/06/26 11:48:23;;;;;;;5.40;4.57;;;28.10;93.10;;;;;;5070207;28;20544;-52
2022/06/26 11:50:57;;;;;;;5.25;4.75;;;28.00;93.30;;;;;;5071957;28;20028;-50
2022/06/26 11:53:31;;;;;;;4.75;4.30;;;27.90;93.80;;;;;;5057809;28;20096;-52
2022/06/26 11:56:01;;;;;;;4.97;4.57;;;27.90;93.70;;;;;;5066570;28;20104;-47
2022/06/26 11:58:32;;;;;;;5.03;4.53;;;28.00;94.20;;;;;;5072202;28;20035;-49
2022/06/26 12:01:05;;;;;;;4.28;3.88;;;28.00;93.90;;;;;;5065788;28;20033;-53
2022/06/26 12:03:31;;;;;;;5.15;3.90;;;28.10;94.80;;;;;;5071079;28;20024;-52
2022/06/26 12:05:57;;;;;;;4.68;4.28;;;28.30;94.60;;;;;;5070925;28;20401;-51
2022/06/26 12:08:22;;;;;;;4.25;3.58;;;28.30;93.70;;;;;;5068679;28;20020;-48
2022/06/26 12:10:52;;;;;;;6.47;3.65;;;28.40;94.40;;;;;;5072228;28;20389;-49
2022/06/26 12:13:36;;;;;;;3.22;3.03;;;28.40;93.80;;;;;;5062292;28;20443;-52
2022/06/26 12:16:03;;;;;;;6.53;4.97;;;28.60;94.40;;;;;;5069827;28;20032;-53
2022/06/26 12:18:29;;;;;;;4.95;4.40;;;28.60;93.10;;;;;;5065719;28;20061;-54
2022/06/26 12:20:54;;;;;;;3.65;3.22;;;28.30;92.90;;;;;;5070923;28;20075;-53
2022/06/26 12:23:34;;;;;;;4.90;3.38;;;28.10;94.30;;;;;;5067901;28;20622;-53
2022/06/26 12:26:07;;;;;;;5.82;3.92;;;28.00;93.80;;;;;;5070069;28;20027;-54
2022/06/26 12:28:41;;;;;;;4.10;3.65;;;28.00;94.30;;;;;;5066555;28;20060;-54
2022/06/26 12:31:06;;;;;;;3.97;3.58;;;27.80;94.50;;;;;;5068021;28;20394;-53
2022/06/26 12:33:32;;;;;;;5.45;3.13;;;27.80;94.20;;;;;;5065301;28;20032;-53
2022/06/26 12:35:57;;;;;;;4.25;3.80;;;28.00;95.00;;;;;;5068343;28;20567;-50
2022/06/26 12:38:32;;;;;;;3.38;3.08;;;28.00;93.50;;;;;;5071095;28;20020;-52
2022/06/26 12:40:57;;;;;;;5.73;3.77;;;27.80;93.90;;;;;;5067486;28;20082;-53
2022/06/26 12:43:23;;;;;;;3.97;3.55;;;27.80;93.80;;;;;;5068619;28;20037;-55
2022/06/26 12:45:49;;;;;;;4.43;3.53;;;27.70;93.60;;;;;;5066114;28;20029;-53
2022/06/26 12:48:14;;;;;;;3.72;3.35;;;27.70;93.40;;;;;;5054599;28;20025;-52
2022/06/26 12:50:40;;;;;;;6.00;3.17;;;27.70;94.30;;;;;;5070496;28;20027;-55
2022/06/26 12:53:05;;;;;;;5.20;3.50;;;27.80;94.00;;;;;;5069532;28;20471;-48
2022/06/26 12:55:31;;;;;;;3.85;3.50;;;27.80;94.10;;;;;;5066392;28;20081;-54
2022/06/26 12:57:56;;;;;;;4.05;3.65;;;27.80;93.80;;;;;;5068518;28;20449;-51